createdAt,value
2023-05-21T00:00:45.951Z,0.80
2023-05-21T00:03:16.510Z,0.90
2023-05-21T00:05:56.016Z,0.80
2023-05-21T00:08:24.999Z,0.65
2023-05-21T00:11:03.721Z,0.93
2023-05-21T00:13:30.623Z,0.77
2023-05-21T00:15:57.719Z,0.73
2023-05-21T00:18:25.863Z,0.80
2023-05-21T00:20:53.142Z,0.80
2023-05-21T00:23:20.092Z,0.90
2023-05-21T00:25:47.237Z,0.87
2023-05-21T00:28:15.320Z,0.60
2023-05-21T00:30:45.891Z,0.95
2023-05-21T00:33:14.109Z,0.70
2023-05-21T00:35:41.215Z,1.40
2023-05-21T00:38:09.593Z,0.77
2023-05-21T00:40:36.522Z,1.23
2023-05-21T00:43:03.603Z,1.40
2023-05-21T00:45:30.535Z,0.90
2023-05-21T00:47:57.867Z,0.82
2023-05-21T00:50:29.529Z,1.63
2023-05-21T00:52:56.957Z,1.02
2023-05-21T00:55:24.861Z,0.90
2023-05-21T00:57:52.181Z,0.93
2023-05-21T01:00:20.797Z,0.73
2023-05-21T01:02:52.272Z,0.97
2023-05-21T01:05:19.601Z,1.00
2023-05-21T01:07:46.882Z,0.80
2023-05-21T01:10:18.011Z,0.90
2023-05-21T01:12:46.072Z,1.40
2023-05-21T01:15:19.372Z,1.10
2023-05-21T01:17:51.744Z,1.20
2023-05-21T01:20:20.406Z,1.02
2023-05-21T01:22:54.550Z,3.25
2023-05-21T01:25:23.005Z,1.23
2023-05-21T01:27:52.848Z,1.43
2023-05-21T01:30:21.352Z,1.10
2023-05-21T01:33:13.825Z,1.20
2023-05-21T01:35:47.118Z,1.80
2023-05-21T01:38:14.144Z,1.52
2023-05-21T01:40:44.593Z,1.20
2023-05-21T01:43:13.281Z,1.33
2023-05-21T01:45:46.584Z,1.48
2023-05-21T01:48:14.988Z,1.50
2023-05-21T01:50:47.404Z,1.42
2023-05-21T01:53:17.491Z,1.77
2023-05-21T01:55:51.714Z,1.65
2023-05-21T01:58:23.112Z,1.40
2023-05-21T02:00:54.249Z,1.13
2023-05-21T02:03:34.039Z,1.33
2023-05-21T02:06:04.341Z,1.57
2023-05-21T02:08:38.823Z,2.60
2023-05-21T02:13:58.324Z,2.15
2023-05-21T02:16:30.226Z,1.90
2023-05-21T02:18:58.059Z,1.70
2023-05-21T02:21:31.958Z,2.40
2023-05-21T02:24:01.534Z,2.05
2023-05-21T02:26:42.008Z,1.88
2023-05-21T02:29:09.505Z,1.67
2023-05-21T02:31:37.204Z,2.37
2023-05-21T02:34:10.599Z,2.00
2023-05-21T02:36:37.792Z,1.75
2023-05-21T02:39:05.087Z,1.63
2023-05-21T02:41:35.378Z,1.90
2023-05-21T02:44:05.306Z,2.03
2023-05-21T02:46:40.970Z,2.22
2023-05-21T02:49:14.028Z,1.95
2023-05-21T02:51:44.775Z,1.88
2023-05-21T02:54:14.120Z,1.80
2023-05-21T02:56:41.026Z,1.80
2023-05-21T02:59:07.631Z,1.40
2023-05-21T03:01:34.739Z,2.00
2023-05-21T03:04:09.113Z,1.73
2023-05-21T03:06:37.140Z,2.03
2023-05-21T03:09:05.934Z,1.67
2023-05-21T03:11:44.303Z,1.90
2023-05-21T03:14:11.427Z,1.90
2023-05-21T03:16:41.907Z,1.42
2023-05-21T03:19:10.058Z,1.88
2023-05-21T03:21:38.685Z,2.10
2023-05-21T03:24:07.177Z,1.75
2023-05-21T03:26:42.146Z,1.75
2023-05-21T03:29:11.131Z,2.10
2023-05-21T03:31:37.940Z,2.08
2023-05-21T03:34:10.766Z,1.80
2023-05-21T03:36:39.499Z,2.10
2023-05-21T03:39:07.249Z,1.75
2023-05-21T03:41:37.362Z,2.03
2023-05-21T03:44:07.874Z,2.20
2023-05-21T03:46:34.830Z,1.90
2023-05-21T03:49:04.681Z,1.35
2023-05-21T03:51:32.061Z,1.83
2023-05-21T03:54:06.981Z,2.20
2023-05-21T03:56:39.093Z,1.60
2023-05-21T03:59:05.938Z,2.00
2023-05-21T04:01:33.690Z,1.83
2023-05-21T04:04:03.350Z,1.90
2023-05-21T04:06:32.746Z,1.35
2023-05-21T04:09:01.718Z,1.73
2023-05-21T04:11:28.815Z,2.43
2023-05-21T04:13:55.642Z,1.67
2023-05-21T04:18:56.041Z,1.85
2023-05-21T04:21:24.304Z,1.98
2023-05-21T04:23:52.515Z,1.60
2023-05-21T04:26:23.346Z,1.60
2023-05-21T04:28:51.641Z,2.20
2023-05-21T04:31:22.819Z,1.58
2023-05-21T04:33:53.021Z,1.55
2023-05-21T04:36:20.367Z,2.00
2023-05-21T04:38:47.417Z,1.98
2023-05-21T04:41:14.817Z,1.98
2023-05-21T04:43:44.069Z,1.92
2023-05-21T04:46:18.854Z,1.92
2023-05-21T04:48:47.174Z,1.77
2023-05-21T04:51:15.383Z,2.05
2023-05-21T04:53:42.680Z,1.92
2023-05-21T04:56:10.117Z,2.63
2023-05-21T04:58:39.505Z,1.75
2023-05-21T05:01:09.087Z,1.80
2023-05-21T05:03:36.852Z,2.08
2023-05-21T05:06:04.673Z,1.90
2023-05-21T05:08:46.466Z,2.22
2023-05-21T05:11:16.655Z,1.80
2023-05-21T05:13:44.075Z,2.17
2023-05-21T05:16:11.569Z,1.95
2023-05-21T05:18:38.422Z,2.10
2023-05-21T05:21:05.282Z,1.40
2023-05-21T05:23:32.010Z,1.80
2023-05-21T05:25:58.985Z,2.47
2023-05-21T05:28:26.129Z,1.90
2023-05-21T05:30:56.306Z,2.10
2023-05-21T05:33:24.494Z,1.90
2023-05-21T05:35:51.259Z,2.00
2023-05-21T05:38:21.437Z,2.17
2023-05-21T05:40:48.166Z,2.17
2023-05-21T05:43:15.520Z,2.40
2023-05-21T05:45:42.398Z,2.80
2023-05-21T05:48:09.404Z,2.33
2023-05-21T05:50:36.168Z,2.50
2023-05-21T05:53:02.812Z,2.45
2023-05-21T05:55:30.733Z,2.38
2023-05-21T05:57:57.568Z,2.30
2023-05-21T06:00:24.402Z,1.92
2023-05-21T06:02:51.367Z,2.00
2023-05-21T06:05:19.023Z,2.65
2023-05-21T06:10:26.597Z,2.63
2023-05-21T06:12:53.389Z,2.40
2023-05-21T06:15:20.472Z,2.50
2023-05-21T06:17:47.776Z,2.70
2023-05-21T06:20:18.903Z,2.17
2023-05-21T06:22:45.920Z,2.85
2023-05-21T06:25:13.082Z,2.25
2023-05-21T06:27:39.678Z,2.40
2023-05-21T06:30:07.648Z,2.42
2023-05-21T06:32:39.464Z,2.40
2023-05-21T06:35:06.623Z,2.60
2023-05-21T06:37:33.225Z,2.60
2023-05-21T06:40:00.989Z,2.57
2023-05-21T06:42:27.604Z,2.75
2023-05-21T06:44:54.834Z,2.63
2023-05-21T06:47:21.971Z,2.72
2023-05-21T06:49:51.392Z,3.38
2023-05-21T06:52:21.821Z,3.03
2023-05-21T06:54:51.005Z,2.85
2023-05-21T06:57:21.680Z,3.40
2023-05-21T06:59:51.133Z,2.67
2023-05-21T07:02:17.827Z,2.58
2023-05-21T07:04:53.857Z,2.93
2023-05-21T07:07:20.884Z,3.08
2023-05-21T07:09:47.674Z,3.42
2023-05-21T07:12:17.171Z,2.90
2023-05-21T07:14:47.125Z,3.15
2023-05-21T07:17:19.329Z,2.40
2023-05-21T07:19:46.163Z,2.60
2023-05-21T07:22:14.374Z,2.38
2023-05-21T07:24:41.353Z,2.25
2023-05-21T07:27:17.751Z,2.85
2023-05-21T07:29:51.948Z,2.77
2023-05-21T07:32:18.981Z,3.03
2023-05-21T07:34:48.014Z,2.60
2023-05-21T07:37:14.861Z,2.95
2023-05-21T07:39:41.375Z,2.67
2023-05-21T07:42:08.026Z,2.53
2023-05-21T07:44:34.859Z,3.00
2023-05-21T07:47:02.465Z,2.75
2023-05-21T07:49:29.169Z,2.83
2023-05-21T07:51:56.311Z,3.03
2023-05-21T07:54:26.494Z,2.70
2023-05-21T07:56:54.664Z,2.78
2023-05-21T07:59:21.308Z,2.50
2023-05-21T08:01:48.079Z,3.05
2023-05-21T08:04:14.874Z,3.20
2023-05-21T08:06:41.828Z,3.23
2023-05-21T08:09:09.924Z,2.88
2023-05-21T08:11:36.923Z,2.92
2023-05-21T08:14:05.609Z,2.60
2023-05-21T08:16:33.637Z,2.45
2023-05-21T08:19:00.436Z,3.90
2023-05-21T08:21:27.090Z,2.88
2023-05-21T08:23:54.602Z,2.60
2023-05-21T08:26:22.178Z,2.75
2023-05-21T08:28:49.019Z,2.90
2023-05-21T08:31:18.542Z,2.53
2023-05-21T08:33:58.726Z,3.17
2023-05-21T08:36:25.632Z,2.78
2023-05-21T08:38:53.947Z,3.03
2023-05-21T08:41:23.314Z,3.17
2023-05-21T08:43:57.964Z,3.40
2023-05-21T08:46:25.905Z,3.67
2023-05-21T08:48:56.856Z,3.25
2023-05-21T08:51:24.548Z,2.80
2023-05-21T08:53:51.213Z,2.90
2023-05-21T08:56:18.423Z,3.57
2023-05-21T08:58:49.755Z,3.53
2023-05-21T09:01:19.975Z,3.45
2023-05-21T09:04:01.695Z,3.28
2023-05-21T09:06:38.974Z,2.95
2023-05-21T09:09:15.278Z,2.97
2023-05-21T09:11:42.437Z,2.97
2023-05-21T09:14:10.988Z,2.95
2023-05-21T09:16:38.993Z,2.80
2023-05-21T09:19:06.176Z,3.15
2023-05-21T09:21:33.333Z,3.03
2023-05-21T09:24:01.749Z,3.22
2023-05-21T09:26:28.750Z,2.88
2023-05-21T09:29:00.918Z,3.30
2023-05-21T09:31:32.435Z,3.58
2023-05-21T09:33:59.842Z,3.00
2023-05-21T09:36:27.956Z,3.25
2023-05-21T09:38:54.529Z,3.55
2023-05-21T09:41:32.124Z,2.92
2023-05-21T09:44:02.557Z,3.67
2023-05-21T09:46:41.962Z,3.83
2023-05-21T09:49:30.120Z,3.33
2023-05-21T09:52:00.468Z,3.28
2023-05-21T09:54:32.432Z,4.07
2023-05-21T09:57:03.243Z,3.22
2023-05-21T09:59:39.763Z,3.50
2023-05-21T10:02:22.108Z,3.40
2023-05-21T10:04:55.662Z,3.58
2023-05-21T10:07:30.374Z,3.08
2023-05-21T10:09:58.191Z,3.63
2023-05-21T10:12:25.640Z,3.23
2023-05-21T10:14:57.924Z,2.92
2023-05-21T10:17:28.795Z,3.83
2023-05-21T10:19:56.895Z,3.60
2023-05-21T10:22:25.041Z,3.00
2023-05-21T10:24:55.216Z,3.03
2023-05-21T10:27:24.119Z,3.10
2023-05-21T10:29:51.086Z,3.20
2023-05-21T10:32:21.930Z,3.05
2023-05-21T10:34:50.018Z,2.97
2023-05-21T10:37:16.980Z,3.20
2023-05-21T10:39:46.243Z,2.97
2023-05-21T10:42:21.470Z,3.35
2023-05-21T10:45:19.451Z,2.85
2023-05-21T10:48:25.183Z,2.95
2023-05-21T10:51:18.569Z,2.90
2023-05-21T10:54:01.698Z,2.88
2023-05-21T10:57:16.947Z,2.88
2023-05-21T10:59:55.287Z,3.53
2023-05-21T11:02:26.162Z,3.70
2023-05-21T11:05:01.166Z,3.13
2023-05-21T11:07:50.471Z,3.13
2023-05-21T11:10:37.899Z,2.60
2023-05-21T11:13:18.921Z,3.47
2023-05-21T11:15:58.089Z,3.05
2023-05-21T11:18:38.145Z,3.37
2023-05-21T11:21:15.986Z,3.67
2023-05-21T11:23:57.459Z,3.88
2023-05-21T11:26:26.339Z,3.58
2023-05-21T11:29:05.161Z,3.70
2023-05-21T11:31:38.749Z,3.70
2023-05-21T11:34:30.290Z,4.63
2023-05-21T11:37:19.239Z,4.10
2023-05-21T11:39:46.191Z,4.00
2023-05-21T11:42:32.235Z,3.72
2023-05-21T11:45:03.174Z,3.50
2023-05-21T11:47:31.634Z,4.80
2023-05-21T11:50:03.634Z,4.15
2023-05-21T11:52:33.605Z,4.40
2023-05-21T11:55:03.510Z,4.50
2023-05-21T11:57:33.103Z,3.63
2023-05-21T12:00:16.464Z,4.32
2023-05-21T12:02:52.271Z,4.75
2023-05-21T12:05:19.238Z,4.85
2023-05-21T12:07:50.918Z,4.55
2023-05-21T12:10:23.745Z,3.90
2023-05-21T12:12:57.712Z,4.15
2023-05-21T12:15:27.299Z,3.95
2023-05-21T12:17:56.068Z,3.83
2023-05-21T12:20:25.236Z,5.07
2023-05-21T12:22:51.942Z,4.93
2023-05-21T12:25:25.614Z,4.35
2023-05-21T12:27:58.217Z,4.38
2023-05-21T12:30:26.050Z,4.40
2023-05-21T12:32:52.903Z,4.57
2023-05-21T12:35:24.175Z,5.47
2023-05-21T12:37:52.742Z,5.15
2023-05-21T12:40:20.620Z,6.70
2023-05-21T12:42:47.767Z,5.85
2023-05-21T12:45:15.031Z,5.28
2023-05-21T12:47:52.953Z,4.97
2023-05-21T12:50:23.161Z,4.80
2023-05-21T12:52:54.752Z,5.10
2023-05-21T12:55:23.776Z,5.30
2023-05-21T12:58:00.049Z,5.30
2023-05-21T13:00:28.123Z,5.13
2023-05-21T13:02:57.437Z,5.20
2023-05-21T13:05:25.416Z,5.38
2023-05-21T13:07:54.392Z,5.45
2023-05-21T13:10:21.290Z,5.10
2023-05-21T13:12:49.981Z,5.13
2023-05-21T13:15:27.265Z,5.50
2023-05-21T13:17:56.553Z,5.53
2023-05-21T13:20:26.528Z,5.55
2023-05-21T13:22:56.392Z,5.10
2023-05-21T13:25:25.297Z,8.03
2023-05-21T13:27:54.364Z,6.28
2023-05-21T13:30:21.998Z,5.13
2023-05-21T13:32:50.749Z,4.88
2023-05-21T13:35:17.805Z,5.00
2023-05-21T13:37:46.686Z,5.70
2023-05-21T13:40:17.524Z,5.70
2023-05-21T13:42:51.864Z,5.28
2023-05-21T13:45:24.695Z,5.22
2023-05-21T13:47:51.541Z,5.13
2023-05-21T13:50:20.818Z,5.10
2023-05-21T13:52:50.276Z,5.20
2023-05-21T13:55:19.928Z,5.75
2023-05-21T13:57:48.835Z,5.43
2023-05-21T14:00:16.341Z,5.22
2023-05-21T14:02:45.898Z,5.73
2023-05-21T14:05:17.676Z,5.40
2023-05-21T14:07:44.539Z,5.30
2023-05-21T14:10:32.514Z,5.32
2023-05-21T14:13:15.465Z,5.45
2023-05-21T14:15:43.524Z,5.17
2023-05-21T14:18:12.553Z,5.60
2023-05-21T14:20:39.555Z,6.15
2023-05-21T14:23:06.316Z,5.35
2023-05-21T14:25:33.514Z,5.18
2023-05-21T14:28:01.097Z,5.70
2023-05-21T14:30:27.688Z,4.90
2023-05-21T14:32:55.981Z,5.32
2023-05-21T14:35:24.965Z,4.93
2023-05-21T14:37:53.232Z,5.18
2023-05-21T14:40:23.427Z,5.73
2023-05-21T14:42:54.765Z,5.53
2023-05-21T14:45:21.595Z,5.57
2023-05-21T14:47:49.077Z,4.97
2023-05-21T14:50:16.631Z,4.43
2023-05-21T14:52:43.550Z,4.00
2023-05-21T14:55:13.010Z,3.22
2023-05-21T14:57:40.226Z,3.75
2023-05-21T15:00:08.486Z,4.32
2023-05-21T15:02:36.173Z,4.90
2023-05-21T15:05:02.904Z,3.33
2023-05-21T15:07:29.547Z,3.00
2023-05-21T15:09:56.411Z,3.38
2023-05-21T15:12:24.488Z,3.13
2023-05-21T15:14:55.698Z,2.38
2023-05-21T15:17:31.245Z,2.80
2023-05-21T15:20:05.906Z,3.13
2023-05-21T15:22:33.229Z,4.07
2023-05-21T15:25:03.851Z,8.05
2023-05-21T15:27:31.277Z,4.25
2023-05-21T15:29:58.881Z,2.77
2023-05-21T15:32:25.876Z,4.07
2023-05-21T15:34:56.054Z,7.93
2023-05-21T15:37:38.361Z,18.67
2023-05-21T15:40:06.241Z,5.78
2023-05-21T15:42:36.038Z,3.33
2023-05-21T15:45:06.992Z,4.60
2023-05-21T15:47:33.993Z,6.32
2023-05-21T15:50:01.140Z,3.42
2023-05-21T15:52:28.294Z,4.03
2023-05-21T15:54:55.649Z,4.53
2023-05-21T15:57:23.079Z,4.00
2023-05-21T15:59:55.087Z,4.18
2023-05-21T16:02:21.751Z,3.63
2023-05-21T16:04:52.573Z,3.58
2023-05-21T16:07:31.068Z,3.83
2023-05-21T16:09:57.882Z,4.05
2023-05-21T16:12:26.465Z,3.58
2023-05-21T16:14:57.179Z,3.65
2023-05-21T16:17:24.263Z,4.18
2023-05-21T16:19:53.526Z,3.87
2023-05-21T16:22:24.172Z,3.90
2023-05-21T16:24:50.930Z,3.53
2023-05-21T16:27:21.998Z,4.22
2023-05-21T16:29:50.132Z,3.72
2023-05-21T16:32:17.172Z,3.60
2023-05-21T16:34:44.402Z,2.45
2023-05-21T16:37:11.728Z,2.92
2023-05-21T16:39:40.669Z,2.58
2023-05-21T16:42:32.813Z,3.30
2023-05-21T16:45:08.113Z,3.90
2023-05-21T16:47:37.783Z,3.47
2023-05-21T16:50:29.127Z,4.03
2023-05-21T16:53:04.426Z,3.70
2023-05-21T16:55:42.630Z,2.90
2023-05-21T16:58:16.836Z,2.73
2023-05-21T17:00:44.553Z,3.08
2023-05-21T17:03:13.688Z,3.47
2023-05-21T17:05:43.502Z,3.92
2023-05-21T17:08:32.102Z,4.13
2023-05-21T17:10:59.357Z,3.27
2023-05-21T17:13:59.015Z,3.40
2023-05-21T17:16:25.893Z,3.63
2023-05-21T17:18:55.660Z,3.38
2023-05-21T17:21:33.706Z,3.47
2023-05-21T17:24:10.760Z,3.40
2023-05-21T17:26:39.554Z,3.08
2023-05-21T17:29:34.882Z,4.03
2023-05-21T17:35:03.670Z,3.08
2023-05-21T17:37:39.758Z,3.63
2023-05-21T17:40:08.620Z,3.47
2023-05-21T17:42:50.922Z,3.72
2023-05-21T17:45:36.329Z,3.90
2023-05-21T17:48:23.401Z,4.13
2023-05-21T17:50:54.762Z,4.10
2023-05-21T17:56:15.549Z,4.68
2023-05-21T17:58:42.178Z,4.35
2023-05-21T18:01:08.852Z,4.53
2023-05-21T18:03:36.036Z,4.57
2023-05-21T18:06:02.714Z,5.60
2023-05-21T18:11:11.262Z,5.50
2023-05-21T18:13:38.189Z,4.88
2023-05-21T18:16:09.201Z,4.63
2023-05-21T18:18:36.064Z,5.23
2023-05-21T18:21:05.836Z,5.43
2023-05-21T18:23:33.481Z,5.90
2023-05-21T18:26:00.214Z,5.50
2023-05-21T18:28:29.594Z,4.93
2023-05-21T18:31:01.046Z,5.90
2023-05-21T18:33:27.781Z,5.65
2023-05-21T18:35:54.851Z,5.85
2023-05-21T18:38:23.370Z,6.03
2023-05-21T18:40:54.976Z,5.30
2023-05-21T18:43:21.621Z,5.83
2023-05-21T18:45:48.261Z,5.70
2023-05-21T18:48:16.890Z,6.20
2023-05-21T18:50:43.824Z,6.32
2023-05-21T18:53:14.600Z,5.82
2023-05-21T18:55:41.492Z,7.40
2023-05-21T18:58:08.105Z,6.38
2023-05-21T19:00:38.005Z,5.80
2023-05-21T19:03:04.955Z,5.78
2023-05-21T19:05:34.156Z,6.65
2023-05-21T19:08:01.088Z,6.03
2023-05-21T19:10:27.795Z,6.55
2023-05-21T19:12:54.631Z,6.60
2023-05-21T19:15:22.008Z,7.68
2023-05-21T19:17:51.859Z,6.80
2023-05-21T19:20:25.263Z,7.23
2023-05-21T19:22:51.973Z,7.22
2023-05-21T19:25:21.492Z,7.75
2023-05-21T19:27:48.490Z,7.53
2023-05-21T19:30:17.892Z,6.88
2023-05-21T19:32:49.199Z,8.23
2023-05-21T19:35:16.901Z,7.88
2023-05-21T19:37:43.816Z,9.00
2023-05-21T19:40:19.779Z,7.43
2023-05-21T19:42:46.598Z,7.50
2023-05-21T19:45:13.469Z,7.57
2023-05-21T19:47:41.447Z,7.65
2023-05-21T19:50:21.892Z,7.82
2023-05-21T19:52:49.016Z,7.57
2023-05-21T19:55:23.339Z,7.55
2023-05-21T19:57:52.621Z,7.57
2023-05-21T20:00:21.621Z,8.00
2023-05-21T20:02:48.203Z,6.78
2023-05-21T20:05:16.940Z,6.75
2023-05-21T20:07:43.886Z,6.95
2023-05-21T20:10:13.708Z,7.50
2023-05-21T20:12:40.767Z,7.55
2023-05-21T20:15:08.058Z,6.82
2023-05-21T20:17:36.012Z,6.72
2023-05-21T20:20:05.616Z,7.43
2023-05-21T20:22:33.396Z,7.27
2023-05-21T20:25:01.904Z,8.18
2023-05-21T20:27:31.237Z,7.10
2023-05-21T20:29:59.883Z,7.03
2023-05-21T20:32:27.248Z,6.68
2023-05-21T20:35:02.672Z,6.83
2023-05-21T20:37:32.794Z,7.13
2023-05-21T20:40:03.418Z,7.00
2023-05-21T20:42:34.391Z,7.70
2023-05-21T20:45:06.708Z,6.47
2023-05-21T20:47:40.586Z,6.63
2023-05-21T20:50:30.672Z,7.70
2023-05-21T20:53:25.196Z,7.03
2023-05-21T20:56:00.466Z,7.40
2023-05-21T20:58:27.389Z,7.55
2023-05-21T21:00:55.651Z,6.47
2023-05-21T21:03:22.719Z,7.85
2023-05-21T21:05:53.083Z,6.30
2023-05-21T21:08:20.318Z,7.72
2023-05-21T21:10:47.174Z,7.30
2023-05-21T21:13:15.022Z,7.10
2023-05-21T21:15:44.089Z,6.93
2023-05-21T21:18:12.478Z,7.88
2023-05-21T21:20:39.813Z,7.80
2023-05-21T21:23:06.613Z,7.30
2023-05-21T21:25:33.888Z,7.33
2023-05-21T21:28:05.025Z,6.78
2023-05-21T21:30:35.484Z,7.55
2023-05-21T21:33:02.125Z,7.70
2023-05-21T21:35:29.467Z,7.35
2023-05-21T21:38:00.292Z,7.83
2023-05-21T21:40:29.887Z,8.73
2023-05-21T21:42:59.783Z,7.53
2023-05-21T21:45:31.550Z,7.85
2023-05-21T21:47:59.829Z,8.32
2023-05-21T21:50:29.200Z,7.50
2023-05-21T21:55:46.169Z,7.97
2023-05-21T21:58:16.097Z,7.78
2023-05-21T22:00:43.603Z,7.53
2023-05-21T22:03:25.427Z,8.48
2023-05-21T22:05:52.274Z,8.55
2023-05-21T22:08:19.955Z,7.43
2023-05-21T22:10:49.821Z,7.88
2023-05-21T22:13:20.316Z,8.40
2023-05-21T22:16:13.413Z,8.90
2023-05-21T22:18:43.728Z,8.40
2023-05-21T22:21:14.789Z,8.80
2023-05-21T22:23:43.128Z,8.30
2023-05-21T22:26:10.121Z,8.55
2023-05-21T22:28:36.986Z,8.10
2023-05-21T22:31:03.880Z,8.20
2023-05-21T22:33:35.876Z,8.43
2023-05-21T22:36:02.512Z,8.48
2023-05-21T22:38:29.414Z,9.30
2023-05-21T22:40:56.544Z,8.48
2023-05-21T22:43:23.216Z,7.85
2023-05-21T22:45:51.407Z,8.53
2023-05-21T22:48:18.506Z,8.85
2023-05-21T22:50:46.449Z,8.15
2023-05-21T22:53:13.408Z,9.18
2023-05-21T22:56:16.290Z,9.07
2023-05-21T22:58:48.664Z,8.83
2023-05-21T23:01:21.299Z,9.98
2023-05-21T23:03:51.290Z,9.48
2023-05-21T23:06:22.539Z,9.73
2023-05-21T23:08:51.782Z,9.13
2023-05-21T23:11:21.686Z,9.90
2023-05-21T23:13:48.829Z,9.85
2023-05-21T23:16:17.357Z,9.32
2023-05-21T23:18:46.152Z,8.80
2023-05-21T23:21:15.268Z,8.80
2023-05-21T23:23:42.336Z,9.83
2023-05-21T23:26:09.194Z,8.55
2023-05-21T23:28:38.914Z,9.80
2023-05-21T23:31:08.127Z,9.32
2023-05-21T23:33:37.923Z,10.00
2023-05-21T23:36:05.360Z,10.07
2023-05-21T23:38:32.618Z,9.65
2023-05-21T23:41:00.915Z,10.13
2023-05-21T23:43:29.038Z,10.75
2023-05-21T23:45:56.058Z,9.77
2023-05-21T23:48:22.999Z,10.07
2023-05-21T23:50:53.363Z,10.77
2023-05-21T23:53:22.913Z,10.20
2023-05-21T23:55:52.743Z,9.63
2023-05-21T23:58:20.166Z,9.60
